Terminal Aerodrome Forecast
Issued by NWS

Home | Current Version | Previous Version | Text Only | Print | Product List | Glossary On
Versions: 1 2 3 4 5 6 7 8 9 10 11 12 13 14 15 16
000
FTUS42 KFFC 282338
TAFPDK
TAF
KPDK 282338Z 2900/2924 05005KT P6SM FEW060
     FM290300 09003KT P6SM FEW060 SCT250
     FM291400 31005KT P6SM FEW040 SCT120
     FM291800 33007KT P6SM SCT060 BKN120
     FM292300 35006KT P6SM SCT250=

USA.gov is the U.S. government's official web portal to all federal, state and local government web resources and services.